Airfield :
LOGIN :

Register | Disclaimer

   EN    FR    IT 

 










Legend :    VFR   Marginal VFR   IFR   Intensive IFR   Very Intensive IFR
Visi :
Ceiling :
>= 8 km
>= 3000ft
5 to 8 km
1000 to 3000 ft
1500m to 5 km
500 to 1000 ft
800 to 1500m
200 to 500 ft
< 800m
< 200 ft
Symbols :   Thunderstorms  Fog  Heavy snow  Heavy precipitations  Wind > 20 kt
SIGMETs :     Misc.  Thunderstorms  Icing  Turbulence  Mountain Waves  Volcanic Ashes







- Airport Elevation : 230 ft


ETHB - Buckeburg Army

CURRENT METAR :
  • 240720Z 18009KT 7000 -DZ FEW007 BKN013 12/11 Q1021 GRN GRN TEMPO YLO

EXPIRED METARs :
  • 240620Z 18005KT 8000 BKN012 12/11 Q1021 GRN GRN TEMPO YLO
  • 240520Z VRB03KT 9000 BKN012 12/10 Q1021 GRN GRN TEMPO YLO

TAF TAF ETHB
Valid from the 24 at 08:00 until the 24 at 17:00 UTC


240725Z 2408/2417 21010KT 6000 -RADZ BKN010 BKN040
TEMPO 2408/2417 18005KT 2000 RADZ BKN006
No reported NOTAMs for that airfield.



MET'MAP, your aeronautical weather chart ! - Copyright ORBIFLY December 2007 - Disclaimer

ORBIFLY MET'MAP TEAM :

Programming & Development : Alexandra Zaïnal
Concept & Development : Baudouin d'Aumeries
Co-Development & Prog : Marc-Olivier Méhu
Technical & hardware support : Manuel Goepfert

Contact : metmap@orbifly.com




SOURCES & CREDITS :

   NOAA